createdAt,value
2019-03-25T00:00:22.242Z,73.90
2019-03-25T00:01:54.678Z,70.63
2019-03-25T00:03:27.091Z,67.40
2019-03-25T00:04:59.503Z,70.70
2019-03-25T00:06:31.943Z,75.00
2019-03-25T00:08:04.419Z,73.70
2019-03-25T00:09:36.823Z,69.00
2019-03-25T00:11:09.189Z,72.63
2019-03-25T00:12:41.667Z,71.47
2019-03-25T00:14:14.089Z,73.00
2019-03-25T00:15:46.503Z,71.67
2019-03-25T00:17:18.990Z,69.33
2019-03-25T00:18:51.390Z,74.07
2019-03-25T00:20:23.790Z,76.53
2019-03-25T00:21:56.228Z,73.83
2019-03-25T00:23:28.705Z,71.50
2019-03-25T00:25:01.047Z,71.33
2019-03-25T00:26:33.460Z,73.13
2019-03-25T00:28:05.956Z,66.07
2019-03-25T00:29:38.294Z,70.87
2019-03-25T00:31:10.806Z,70.33
2019-03-25T00:32:43.294Z,75.67
2019-03-25T00:34:15.706Z,74.83
2019-03-25T00:35:48.113Z,71.80
2019-03-25T00:37:20.607Z,75.77
2019-03-25T00:38:52.952Z,67.20
2019-03-25T00:40:25.427Z,71.40
2019-03-25T00:41:58.059Z,71.63
2019-03-25T00:43:30.394Z,73.33
2019-03-25T00:45:02.812Z,71.80
2019-03-25T00:46:35.144Z,76.20
2019-03-25T00:48:07.503Z,75.30
2019-03-25T00:49:40.004Z,75.23
2019-03-25T00:51:12.470Z,73.40
2019-03-25T00:52:44.904Z,67.47
2019-03-25T00:54:17.329Z,74.57
2019-03-25T00:55:49.803Z,71.03
2019-03-25T00:57:22.160Z,70.47
2019-03-25T00:58:54.653Z,75.77
2019-03-25T01:00:27.147Z,76.07
2019-03-25T01:01:59.481Z,67.83
2019-03-25T01:03:31.908Z,69.10
2019-03-25T01:05:04.398Z,70.20
2019-03-25T01:06:36.804Z,71.27
2019-03-25T01:08:10.008Z,72.10
2019-03-25T01:09:42.439Z,74.80
2019-03-25T01:11:14.772Z,71.70
2019-03-25T01:12:47.198Z,70.67
2019-03-25T01:14:19.618Z,67.60
2019-03-25T01:15:52.025Z,73.50
2019-03-25T01:17:24.463Z,75.27
2019-03-25T01:18:57.051Z,74.47
2019-03-25T01:20:29.502Z,81.67
2019-03-25T01:22:02.043Z,73.33
2019-03-25T01:23:34.458Z,69.97
2019-03-25T01:25:06.797Z,71.40
2019-03-25T01:26:39.210Z,77.13
2019-03-25T01:28:11.567Z,64.97
2019-03-25T01:29:43.975Z,68.80
2019-03-25T01:31:16.459Z,71.07
2019-03-25T01:32:48.890Z,71.73
2019-03-25T01:34:21.239Z,75.10
2019-03-25T01:35:53.678Z,72.93
2019-03-25T01:37:26.165Z,78.40
2019-03-25T01:38:58.514Z,69.67
2019-03-25T01:40:30.921Z,70.57
2019-03-25T01:42:03.328Z,65.47
2019-03-25T01:43:35.754Z,70.53
2019-03-25T01:45:08.241Z,69.97
2019-03-25T01:46:40.657Z,74.50
2019-03-25T01:48:13.073Z,65.00
2019-03-25T01:49:45.575Z,70.17
2019-03-25T01:51:17.975Z,70.03
2019-03-25T01:52:50.317Z,72.27
2019-03-25T01:54:22.814Z,75.43
2019-03-25T01:55:55.306Z,70.10
2019-03-25T01:57:27.646Z,74.97
2019-03-25T01:59:00.010Z,67.90
2019-03-25T02:00:32.417Z,72.43
2019-03-25T02:02:04.747Z,73.13
2019-03-25T02:03:37.087Z,77.27
2019-03-25T02:05:09.519Z,65.43
2019-03-25T02:06:41.859Z,70.87
2019-03-25T02:08:14.266Z,71.27
2019-03-25T02:09:46.691Z,72.43
2019-03-25T02:11:19.033Z,73.70
2019-03-25T02:12:51.539Z,71.00
2019-03-25T02:14:24.030Z,73.50
2019-03-25T02:15:56.459Z,70.53
2019-03-25T02:17:28.850Z,75.23
2019-03-25T02:19:01.259Z,77.90
2019-03-25T02:20:33.682Z,71.93
2019-03-25T02:22:06.101Z,73.00
2019-03-25T02:23:40.695Z,71.63
2019-03-25T02:25:24.552Z,73.87
2019-03-25T02:26:47.156Z,73.63
2019-03-25T02:28:19.643Z,72.97
2019-03-25T02:29:52.062Z,68.63
2019-03-25T02:31:24.559Z,80.30
2019-03-25T02:32:57.033Z,68.57
2019-03-25T02:34:29.375Z,70.10
2019-03-25T02:36:01.872Z,77.47
2019-03-25T02:37:34.384Z,74.20
2019-03-25T02:39:06.747Z,76.37
2019-03-25T02:40:39.204Z,74.17
2019-03-25T02:42:11.658Z,69.37
2019-03-25T02:43:44.075Z,71.33
2019-03-25T02:45:16.494Z,74.57
2019-03-25T02:46:49.005Z,76.20
2019-03-25T02:48:21.341Z,73.13
2019-03-25T02:49:53.776Z,73.13
2019-03-25T02:51:26.186Z,73.73
2019-03-25T02:52:58.621Z,74.20
2019-03-25T02:54:30.965Z,75.07
2019-03-25T02:56:03.460Z,68.40
2019-03-25T02:57:35.896Z,73.73
2019-03-25T02:59:08.375Z,68.30
2019-03-25T03:00:40.726Z,72.10
2019-03-25T03:02:13.149Z,72.43
2019-03-25T03:03:45.656Z,71.50
2019-03-25T03:05:18.142Z,78.50
2019-03-25T03:06:50.552Z,80.43
2019-03-25T03:08:22.988Z,77.03
2019-03-25T03:09:55.408Z,76.07
2019-03-25T03:13:19.378Z,71.97
2019-03-25T03:14:51.774Z,72.17
2019-03-25T03:16:24.191Z,75.33
2019-03-25T03:17:56.529Z,81.23
2019-03-25T03:19:28.889Z,74.33
2019-03-25T03:21:01.375Z,77.30
2019-03-25T03:22:33.791Z,70.75
2019-03-25T03:24:06.215Z,76.50
2019-03-25T03:25:38.630Z,80.13
2019-03-25T03:27:10.975Z,73.27
2019-03-25T03:28:43.469Z,81.00
2019-03-25T03:30:15.965Z,77.43
2019-03-25T03:31:48.400Z,79.07
2019-03-25T03:33:20.896Z,70.73
2019-03-25T03:34:53.374Z,77.40
2019-03-25T03:36:25.791Z,82.87
2019-03-25T03:37:59.182Z,78.03
2019-03-25T03:39:31.690Z,83.77
2019-03-25T03:41:04.372Z,69.87
2019-03-25T03:42:36.699Z,78.73
2019-03-25T03:44:09.219Z,78.63
2019-03-25T03:45:41.630Z,83.57
2019-03-25T03:47:14.101Z,75.77
2019-03-25T03:48:46.624Z,74.73
2019-03-25T03:50:19.041Z,75.27
2019-03-25T03:51:51.559Z,79.47
2019-03-25T03:53:24.123Z,79.07
2019-03-25T03:54:56.491Z,74.43
2019-03-25T03:56:28.988Z,78.77
2019-03-25T03:58:01.771Z,77.07
2019-03-25T03:59:34.131Z,79.33
2019-03-25T04:01:06.551Z,75.27
2019-03-25T04:02:40.495Z,78.07
2019-03-25T04:04:12.861Z,65.47
2019-03-25T04:05:45.274Z,81.57
2019-03-25T04:07:17.743Z,74.07
2019-03-25T04:08:50.171Z,70.53
2019-03-25T04:10:22.672Z,72.70
2019-03-25T04:11:55.257Z,75.47
2019-03-25T04:13:27.672Z,75.97
2019-03-25T04:15:00.381Z,76.00
2019-03-25T04:16:32.953Z,74.17
2019-03-25T04:18:05.356Z,73.67
2019-03-25T04:19:37.790Z,76.37
2019-03-25T04:21:10.275Z,75.97
2019-03-25T04:22:42.689Z,76.67
2019-03-25T04:24:15.182Z,72.33
2019-03-25T04:25:47.654Z,77.27
2019-03-25T04:27:20.130Z,73.03
2019-03-25T04:28:52.532Z,68.97
2019-03-25T04:30:24.960Z,72.23
2019-03-25T04:31:57.296Z,70.17
2019-03-25T04:33:29.779Z,67.87
2019-03-25T04:35:02.282Z,72.27
2019-03-25T04:36:34.692Z,70.43
2019-03-25T04:38:07.103Z,72.67
2019-03-25T04:39:39.608Z,68.33
2019-03-25T04:41:11.952Z,69.30
2019-03-25T04:42:44.360Z,67.27
2019-03-25T04:44:16.830Z,78.73
2019-03-25T04:45:49.196Z,67.77
2019-03-25T04:47:21.682Z,73.17
2019-03-25T04:48:54.101Z,80.13
2019-03-25T04:50:26.532Z,69.20
2019-03-25T04:51:58.950Z,68.23
2019-03-25T04:53:31.432Z,72.93
2019-03-25T04:55:03.859Z,74.47
2019-03-25T04:56:39.870Z,72.00
2019-03-25T04:58:10.373Z,69.40
2019-03-25T04:59:42.747Z,68.73
2019-03-25T05:01:15.231Z,76.10
2019-03-25T05:02:47.572Z,73.20
2019-03-25T05:04:19.921Z,70.07
2019-03-25T05:05:52.416Z,71.10
2019-03-25T05:07:24.832Z,73.27
2019-03-25T05:08:57.239Z,75.80
2019-03-25T05:10:30.239Z,80.80
2019-03-25T05:12:02.894Z,91.35
2019-03-25T05:13:35.327Z,77.23
2019-03-25T05:15:07.852Z,77.43
2019-03-25T05:16:40.389Z,71.67
2019-03-25T05:18:12.835Z,71.97
2019-03-25T05:19:45.393Z,79.03
2019-03-25T05:21:17.851Z,77.20
2019-03-25T05:22:50.214Z,77.80
2019-03-25T05:24:22.719Z,76.30
2019-03-25T05:25:55.156Z,79.50
2019-03-25T05:27:27.559Z,84.07
2019-03-25T05:29:00.293Z,78.97
2019-03-25T05:30:33.771Z,74.60
2019-03-25T05:32:06.227Z,78.30
2019-03-25T05:33:38.702Z,71.87
2019-03-25T05:35:14.360Z,75.43
2019-03-25T05:36:49.715Z,73.77
2019-03-25T05:38:22.116Z,72.20
2019-03-25T05:39:54.526Z,74.43
2019-03-25T05:41:57.728Z,72.70
2019-03-25T05:43:15.595Z,74.73
2019-03-25T05:44:50.263Z,75.50
2019-03-25T05:46:22.708Z,60.70
2019-03-25T05:48:13.570Z,63.73
2019-03-25T05:49:46.678Z,71.77
2019-03-25T05:51:19.191Z,71.07
2019-03-25T05:52:51.649Z,59.37
2019-03-25T05:54:24.076Z,66.83
2019-03-25T05:55:56.598Z,58.20
2019-03-25T05:57:29.082Z,70.03
2019-03-25T05:59:01.444Z,65.13
2019-03-25T06:00:34.061Z,64.73
2019-03-25T06:02:08.111Z,64.13
2019-03-25T06:03:40.476Z,63.80
2019-03-25T06:05:14.383Z,60.27
2019-03-25T06:06:47.519Z,66.07
2019-03-25T06:08:19.970Z,60.63
2019-03-25T06:09:52.515Z,56.43
2019-03-25T06:11:25.029Z,57.17
2019-03-25T06:12:57.466Z,55.03
2019-03-25T06:14:29.878Z,51.87
2019-03-25T06:16:02.371Z,51.93
2019-03-25T06:17:34.751Z,54.43
2019-03-25T06:19:07.240Z,47.83
2019-03-25T06:20:39.670Z,48.07
2019-03-25T06:22:12.039Z,50.43
2019-03-25T06:23:44.443Z,48.93
2019-03-25T06:25:17.016Z,38.97
2019-03-25T06:26:49.523Z,43.40
2019-03-25T06:28:21.947Z,40.93
2019-03-25T06:29:54.445Z,41.87
2019-03-25T06:31:26.840Z,38.80
2019-03-25T06:32:59.259Z,44.37
2019-03-25T06:34:31.695Z,37.50
2019-03-25T06:36:04.326Z,38.70
2019-03-25T06:37:36.850Z,40.47
2019-03-25T06:39:09.342Z,35.17
2019-03-25T06:40:41.696Z,33.20
2019-03-25T06:42:14.353Z,34.87
2019-03-25T06:43:46.807Z,34.80
2019-03-25T06:45:19.142Z,33.20
2019-03-25T06:46:53.215Z,31.20
2019-03-25T06:48:25.902Z,29.73
2019-03-25T06:49:58.262Z,40.17
2019-03-25T06:51:30.751Z,34.27
2019-03-25T06:53:03.550Z,33.43
2019-03-25T06:54:35.915Z,38.27
2019-03-25T06:56:08.511Z,35.90
2019-03-25T06:57:41.116Z,32.77
2019-03-25T06:59:13.681Z,36.53
2019-03-25T07:00:46.158Z,33.77
2019-03-25T07:02:18.643Z,32.17
2019-03-25T07:03:51.115Z,33.97
2019-03-25T07:05:23.591Z,30.10
2019-03-25T07:06:56.070Z,29.67
2019-03-25T07:08:28.483Z,28.53
2019-03-25T07:10:00.924Z,27.27
2019-03-25T07:11:33.326Z,29.40
2019-03-25T07:13:05.679Z,27.50
2019-03-25T07:14:38.151Z,27.70
2019-03-25T07:16:10.573Z,32.23
2019-03-25T07:17:42.909Z,34.00
2019-03-25T07:19:15.323Z,24.77
2019-03-25T07:20:47.819Z,26.50
2019-03-25T07:22:20.280Z,27.40
2019-03-25T07:23:52.750Z,28.77
2019-03-25T07:25:28.477Z,25.30
2019-03-25T07:27:00.856Z,27.50
2019-03-25T07:28:33.435Z,27.47
2019-03-25T07:30:05.933Z,27.27
2019-03-25T07:31:38.372Z,22.50
2019-03-25T07:33:10.780Z,25.47
2019-03-25T07:34:46.560Z,23.93
2019-03-25T07:36:19.132Z,28.17
2019-03-25T07:37:51.498Z,28.40
2019-03-25T07:41:33.491Z,28.80
2019-03-25T07:43:21.340Z,24.40
2019-03-25T07:44:53.825Z,22.70
2019-03-25T07:46:29.474Z,20.07
2019-03-25T07:48:04.063Z,22.37
2019-03-25T07:49:36.055Z,23.57
2019-03-25T07:51:08.535Z,23.57
2019-03-25T07:52:40.898Z,23.13
2019-03-25T07:54:13.310Z,21.40
2019-03-25T07:55:45.872Z,29.70
2019-03-25T07:57:20.703Z,24.33
2019-03-25T07:58:53.070Z,19.10
2019-03-25T08:00:25.550Z,25.67
2019-03-25T08:01:57.942Z,23.67
2019-03-25T08:03:30.381Z,26.33
2019-03-25T08:05:02.769Z,19.30
2019-03-25T08:06:35.138Z,20.87
2019-03-25T08:08:07.619Z,22.77
2019-03-25T08:09:40.027Z,22.10
2019-03-25T08:11:12.420Z,20.63
2019-03-25T08:12:45.110Z,25.70
2019-03-25T08:14:17.580Z,24.47
2019-03-25T08:15:50.087Z,26.73
2019-03-25T08:17:22.543Z,20.97
2019-03-25T08:18:55.043Z,21.33
2019-03-25T08:20:27.484Z,25.70
2019-03-25T08:22:01.278Z,22.47
2019-03-25T08:23:34.051Z,22.03
2019-03-25T08:25:06.862Z,17.77
2019-03-25T08:26:39.432Z,20.60
2019-03-25T08:28:12.743Z,23.93
2019-03-25T08:29:45.216Z,22.47
2019-03-25T08:31:17.807Z,22.77
2019-03-25T08:32:50.210Z,21.57
2019-03-25T08:34:22.899Z,19.50
2019-03-25T08:35:55.446Z,19.90
2019-03-25T08:37:27.850Z,20.70
2019-03-25T08:39:00.202Z,20.17
2019-03-25T08:40:32.563Z,22.30
2019-03-25T08:42:05.059Z,23.23
2019-03-25T08:43:37.483Z,19.37
2019-03-25T08:45:09.915Z,26.87
2019-03-25T08:46:42.405Z,19.83
2019-03-25T08:48:14.820Z,22.73
2019-03-25T08:49:47.234Z,20.23
2019-03-25T08:51:20.537Z,24.10
2019-03-25T08:52:52.884Z,21.80
2019-03-25T08:54:25.355Z,21.57
2019-03-25T08:55:57.982Z,20.23
2019-03-25T08:57:30.326Z,19.17
2019-03-25T08:59:02.659Z,15.67
2019-03-25T09:00:35.161Z,19.57
2019-03-25T09:02:07.567Z,20.20
2019-03-25T09:03:39.970Z,20.53
2019-03-25T09:05:12.299Z,18.77
2019-03-25T09:06:44.646Z,19.73
2019-03-25T09:08:17.135Z,20.97
2019-03-25T09:09:49.535Z,17.03
2019-03-25T09:11:21.890Z,18.37
2019-03-25T09:12:54.315Z,21.93
2019-03-25T09:14:26.729Z,19.20
2019-03-25T09:15:59.134Z,17.60
2019-03-25T09:17:31.596Z,15.77
2019-03-25T09:19:04.275Z,17.67
2019-03-25T09:20:36.741Z,25.23
2019-03-25T09:22:09.934Z,19.17
2019-03-25T09:23:42.371Z,19.03
2019-03-25T09:25:14.779Z,20.13
2019-03-25T09:26:47.185Z,17.30
2019-03-25T09:28:24.406Z,20.03
2019-03-25T09:29:53.797Z,21.33
2019-03-25T09:31:36.377Z,18.30
2019-03-25T09:33:00.347Z,15.33
2019-03-25T09:34:32.679Z,15.80
2019-03-25T09:36:05.123Z,16.27
2019-03-25T09:37:37.846Z,15.40
2019-03-25T09:39:10.187Z,17.70
2019-03-25T09:40:42.659Z,20.07
2019-03-25T09:42:15.062Z,17.27
2019-03-25T09:43:47.431Z,17.67
2019-03-25T09:45:19.928Z,17.17
2019-03-25T09:46:52.679Z,15.37
2019-03-25T09:48:25.043Z,15.60
2019-03-25T09:49:57.470Z,15.37
2019-03-25T09:51:29.991Z,16.10
2019-03-25T09:53:02.399Z,15.73
2019-03-25T09:54:34.832Z,14.50
2019-03-25T09:56:07.312Z,16.40
2019-03-25T09:57:39.724Z,12.43
2019-03-25T09:59:24.117Z,14.23
2019-03-25T10:00:57.611Z,17.87
2019-03-25T10:02:32.189Z,14.07
2019-03-25T10:04:16.285Z,15.47
2019-03-25T10:05:49.476Z,14.83
2019-03-25T10:07:21.951Z,14.17
2019-03-25T10:08:54.613Z,10.80
2019-03-25T10:10:27.072Z,11.73
2019-03-25T10:11:59.564Z,15.70
2019-03-25T10:13:31.983Z,14.87
2019-03-25T10:15:04.662Z,14.83
2019-03-25T10:16:37.137Z,15.13
2019-03-25T10:18:09.561Z,12.13
2019-03-25T10:19:42.435Z,10.07
2019-03-25T10:21:14.929Z,14.60
2019-03-25T10:22:47.343Z,17.80
2019-03-25T10:24:27.408Z,12.13
2019-03-25T10:25:53.985Z,14.30
2019-03-25T10:27:26.423Z,12.87
2019-03-25T10:28:58.881Z,11.77
2019-03-25T10:30:31.613Z,11.17
2019-03-25T10:32:04.084Z,11.80
2019-03-25T10:33:36.491Z,10.73
2019-03-25T10:35:08.923Z,7.77
2019-03-25T10:36:41.382Z,9.50
2019-03-25T10:38:19.505Z,10.70
2019-03-25T10:39:47.959Z,13.63
2019-03-25T10:41:20.368Z,11.37
2019-03-25T10:42:52.895Z,11.63
2019-03-25T10:44:25.375Z,10.60
2019-03-25T10:45:57.781Z,10.03
2019-03-25T10:47:30.217Z,13.47
2019-03-25T10:49:02.558Z,8.97
2019-03-25T10:50:35.050Z,8.53
2019-03-25T10:52:07.393Z,10.80
2019-03-25T10:53:39.808Z,6.37
2019-03-25T10:55:12.149Z,8.87
2019-03-25T10:56:49.177Z,7.53
2019-03-25T10:58:18.748Z,6.00
2019-03-25T10:59:51.087Z,6.77
2019-03-25T11:01:23.563Z,4.90
2019-03-25T11:02:55.921Z,8.00
2019-03-25T11:04:28.263Z,6.10
2019-03-25T11:06:00.659Z,6.10
2019-03-25T11:07:33.213Z,5.80
2019-03-25T11:09:05.956Z,6.13
2019-03-25T11:10:38.424Z,8.57
2019-03-25T11:12:10.826Z,6.00
2019-03-25T11:13:43.211Z,7.10
2019-03-25T11:15:15.777Z,9.30
2019-03-25T11:16:48.192Z,8.57
2019-03-25T11:18:20.609Z,10.73
2019-03-25T11:19:53.036Z,9.30
2019-03-25T11:21:25.516Z,9.20
2019-03-25T11:22:57.870Z,6.40
2019-03-25T11:24:30.311Z,8.10
2019-03-25T11:26:02.715Z,4.73
2019-03-25T11:27:35.111Z,6.33
2019-03-25T11:29:08.525Z,4.87
2019-03-25T11:30:41.416Z,5.20
2019-03-25T11:32:13.826Z,7.43
2019-03-25T11:33:46.182Z,10.93
2019-03-25T11:35:18.526Z,6.40
2019-03-25T11:36:50.939Z,7.73
2019-03-25T11:38:23.282Z,8.93
2019-03-25T11:39:56.079Z,6.33
2019-03-25T11:41:28.422Z,6.50
2019-03-25T11:43:00.907Z,8.30
2019-03-25T11:44:33.326Z,3.47
2019-03-25T11:46:05.668Z,4.27
2019-03-25T11:47:38.069Z,2.73
2019-03-25T11:49:10.502Z,4.07
2019-03-25T11:50:42.923Z,7.87
2019-03-25T11:52:15.410Z,4.17
2019-03-25T11:53:47.837Z,4.63
2019-03-25T11:55:20.246Z,2.87
2019-03-25T11:56:52.642Z,5.13
2019-03-25T11:58:25.042Z,3.93
2019-03-25T11:59:57.402Z,11.87
2019-03-25T12:01:29.886Z,6.90
2019-03-25T12:03:02.237Z,3.43
2019-03-25T12:04:34.674Z,9.23
2019-03-25T12:06:07.145Z,9.17
2019-03-25T12:07:39.542Z,10.93
2019-03-25T12:09:11.912Z,3.83
2019-03-25T12:10:44.514Z,5.20
2019-03-25T12:12:16.913Z,4.83
2019-03-25T12:13:49.248Z,5.53
2019-03-25T12:15:21.662Z,4.10
2019-03-25T12:16:54.063Z,9.30
2019-03-25T12:18:26.470Z,5.93
2019-03-25T12:19:58.966Z,3.77
2019-03-25T12:21:31.367Z,3.50
2019-03-25T12:23:03.775Z,7.63
2019-03-25T12:24:36.278Z,8.03
2019-03-25T12:26:08.957Z,6.47
2019-03-25T12:27:41.293Z,6.30
2019-03-25T12:29:13.790Z,8.50
2019-03-25T12:30:46.126Z,5.97
2019-03-25T12:32:18.464Z,7.13
2019-03-25T12:33:50.886Z,4.50
2019-03-25T12:35:23.404Z,6.80
2019-03-25T12:36:55.820Z,4.53
2019-03-25T12:38:28.535Z,7.87
2019-03-25T12:40:01.135Z,10.57
2019-03-25T12:41:33.702Z,6.33
2019-03-25T12:43:06.122Z,3.53
2019-03-25T12:44:38.923Z,3.93
2019-03-25T12:46:11.368Z,6.27
2019-03-25T12:47:44.189Z,4.03
2019-03-25T12:49:16.942Z,4.73
2019-03-25T12:50:49.621Z,7.37
2019-03-25T12:52:22.773Z,8.00
2019-03-25T12:53:55.192Z,4.17
2019-03-25T12:55:27.875Z,6.13
2019-03-25T12:57:00.303Z,6.90
2019-03-25T12:58:32.782Z,5.47
2019-03-25T13:00:05.263Z,4.67
2019-03-25T13:01:37.772Z,5.70
2019-03-25T13:03:10.336Z,4.63
2019-03-25T13:04:42.793Z,5.63
2019-03-25T13:06:15.629Z,4.47
2019-03-25T13:07:48.678Z,4.00
2019-03-25T13:09:21.134Z,4.70
2019-03-25T13:10:53.752Z,6.37
2019-03-25T13:12:27.006Z,5.50
2019-03-25T13:13:59.442Z,4.30
2019-03-25T13:15:32.408Z,4.83
2019-03-25T13:17:05.189Z,10.73
2019-03-25T13:18:37.844Z,7.20
2019-03-25T13:20:10.986Z,10.30
2019-03-25T13:21:44.117Z,4.73
2019-03-25T13:23:16.566Z,6.60
2019-03-25T13:24:49.358Z,7.20
2019-03-25T13:26:21.815Z,6.10
2019-03-25T13:27:54.168Z,7.80
2019-03-25T13:29:26.601Z,7.10
2019-03-25T13:30:59.062Z,13.37
2019-03-25T13:32:31.431Z,7.13
2019-03-25T13:34:03.911Z,9.03
2019-03-25T13:35:36.352Z,6.23
2019-03-25T13:37:09.170Z,6.10
2019-03-25T13:38:41.808Z,6.37
2019-03-25T13:40:14.732Z,7.00
2019-03-25T13:41:47.376Z,6.27
2019-03-25T13:43:20.021Z,4.33
2019-03-25T13:44:55.473Z,7.17
2019-03-25T13:46:26.885Z,4.30
2019-03-25T13:47:59.720Z,10.07
2019-03-25T13:49:32.455Z,5.90
2019-03-25T13:51:04.991Z,4.83
2019-03-25T13:52:37.778Z,8.87
2019-03-25T13:54:10.783Z,5.17
2019-03-25T13:55:43.543Z,6.70
2019-03-25T13:57:16.602Z,6.00
2019-03-25T13:58:49.336Z,6.77
2019-03-25T14:00:25.000Z,5.27
2019-03-25T14:01:58.116Z,5.30
2019-03-25T14:03:30.907Z,5.50
2019-03-25T14:05:03.719Z,5.47
2019-03-25T14:06:36.215Z,4.30
2019-03-25T14:08:08.903Z,9.90
2019-03-25T14:09:41.624Z,7.43
2019-03-25T14:11:14.679Z,3.13
2019-03-25T14:12:47.558Z,2.97
2019-03-25T14:14:20.090Z,7.00
2019-03-25T14:15:53.072Z,3.87
2019-03-25T14:17:26.022Z,5.43
2019-03-25T14:18:58.545Z,10.67
2019-03-25T14:20:31.271Z,3.43
2019-03-25T14:22:04.832Z,3.67
2019-03-25T14:23:37.273Z,4.30
2019-03-25T14:25:10.267Z,4.57
2019-03-25T14:26:42.802Z,7.40
2019-03-25T14:28:15.279Z,3.57
2019-03-25T14:29:47.834Z,3.57
2019-03-25T14:31:20.834Z,6.20
2019-03-25T14:32:53.809Z,5.13
2019-03-25T14:34:26.306Z,9.30
2019-03-25T14:35:59.229Z,3.73
2019-03-25T14:37:31.622Z,3.57
2019-03-25T14:39:04.484Z,8.63
2019-03-25T14:40:37.290Z,8.97
2019-03-25T14:42:09.833Z,5.53
2019-03-25T14:43:42.435Z,4.20
2019-03-25T14:45:25.871Z,5.77
2019-03-25T14:46:49.342Z,4.70
2019-03-25T14:48:22.221Z,5.87
2019-03-25T14:49:54.875Z,4.27
2019-03-25T14:51:27.599Z,3.97
2019-03-25T14:53:00.415Z,6.43
2019-03-25T14:54:33.283Z,5.80
2019-03-25T14:56:05.868Z,4.63
2019-03-25T14:57:38.842Z,4.83
2019-03-25T14:59:11.795Z,6.07
2019-03-25T15:00:44.293Z,7.00
2019-03-25T15:02:16.775Z,5.13
2019-03-25T15:03:50.015Z,7.27
2019-03-25T15:05:22.717Z,6.57
2019-03-25T15:06:55.597Z,2.07
2019-03-25T15:08:28.143Z,4.30
2019-03-25T15:10:01.044Z,3.77
2019-03-25T15:11:33.917Z,3.00
2019-03-25T15:13:06.632Z,3.17
2019-03-25T15:14:39.251Z,2.33
2019-03-25T15:16:13.395Z,4.43
2019-03-25T15:17:46.280Z,2.33
2019-03-25T15:19:19.063Z,3.00
2019-03-25T15:20:51.537Z,4.43
2019-03-25T15:22:24.110Z,2.93
2019-03-25T15:23:56.698Z,2.40
2019-03-25T15:25:29.242Z,2.33
2019-03-25T15:27:01.739Z,2.50
2019-03-25T15:28:34.539Z,2.40
2019-03-25T15:30:07.546Z,3.87
2019-03-25T15:31:43.041Z,3.00
2019-03-25T15:33:18.621Z,3.60
2019-03-25T15:34:51.162Z,3.60
2019-03-25T15:36:24.145Z,5.27
2019-03-25T15:37:56.637Z,2.40
2019-03-25T15:39:29.333Z,5.77
2019-03-25T15:41:02.068Z,2.77
2019-03-25T15:42:34.652Z,3.63
2019-03-25T15:44:07.187Z,5.43
2019-03-25T15:45:40.698Z,3.70
2019-03-25T15:47:13.296Z,4.00
2019-03-25T15:48:45.707Z,4.60
2019-03-25T15:50:18.091Z,5.77
2019-03-25T15:51:50.622Z,5.83
2019-03-25T15:53:23.096Z,4.67
2019-03-25T15:54:55.622Z,7.87
2019-03-25T15:56:28.038Z,4.40
2019-03-25T15:58:00.751Z,6.53
2019-03-25T15:59:33.208Z,5.20
2019-03-25T16:01:05.659Z,3.80
2019-03-25T16:02:38.159Z,6.03
2019-03-25T16:04:10.622Z,6.60
2019-03-25T16:05:42.990Z,5.63
2019-03-25T16:07:15.443Z,4.83
2019-03-25T16:08:47.773Z,5.13
2019-03-25T16:10:20.104Z,5.77
2019-03-25T16:11:52.836Z,7.17
2019-03-25T16:13:25.423Z,6.93
2019-03-25T16:14:57.906Z,5.50
2019-03-25T16:16:30.367Z,5.67
2019-03-25T16:18:02.781Z,5.13
2019-03-25T16:19:35.119Z,5.20
2019-03-25T16:21:07.541Z,6.07
2019-03-25T16:22:40.060Z,4.77
2019-03-25T16:24:12.439Z,3.70
2019-03-25T16:25:44.838Z,4.53
2019-03-25T16:27:17.261Z,6.53
2019-03-25T16:28:49.842Z,5.87
2019-03-25T16:30:22.370Z,7.70
2019-03-25T16:31:55.148Z,4.67
2019-03-25T16:33:27.498Z,5.30
2019-03-25T16:34:59.906Z,5.13
2019-03-25T16:36:32.552Z,5.13
2019-03-25T16:38:04.919Z,7.70
2019-03-25T16:39:37.311Z,4.33
2019-03-25T16:41:09.904Z,3.37
2019-03-25T16:42:42.244Z,2.23
2019-03-25T16:44:14.682Z,2.23
2019-03-25T16:45:47.442Z,3.50
2019-03-25T16:47:19.835Z,3.17
2019-03-25T16:48:52.262Z,2.50
2019-03-25T16:50:24.709Z,2.37
2019-03-25T16:51:57.035Z,3.43
2019-03-25T16:53:29.457Z,1.80
2019-03-25T16:55:01.855Z,2.40
2019-03-25T16:56:34.187Z,2.57
2019-03-25T16:58:06.682Z,2.57
2019-03-25T16:59:40.602Z,2.30
2019-03-25T17:01:13.236Z,6.00
2019-03-25T17:02:45.762Z,2.53
2019-03-25T17:04:18.156Z,4.17
2019-03-25T17:05:50.486Z,3.80
2019-03-25T17:07:22.959Z,2.60
2019-03-25T17:08:55.451Z,3.23
2019-03-25T17:10:27.782Z,4.57
2019-03-25T17:12:00.243Z,4.50
2019-03-25T17:13:32.660Z,3.47
2019-03-25T17:15:05.050Z,4.60
2019-03-25T17:16:37.447Z,3.23
2019-03-25T17:18:09.863Z,3.43
2019-03-25T17:19:42.287Z,3.40
2019-03-25T17:21:14.758Z,5.57
2019-03-25T17:22:47.255Z,3.97
2019-03-25T17:24:19.599Z,6.47
2019-03-25T17:25:53.265Z,7.90
2019-03-25T17:27:25.862Z,3.63
2019-03-25T17:28:58.285Z,4.83
2019-03-25T17:30:30.692Z,3.37
2019-03-25T17:32:03.168Z,3.83
2019-03-25T17:33:35.587Z,3.13
2019-03-25T17:35:07.986Z,4.17
2019-03-25T17:36:40.394Z,2.90
2019-03-25T17:38:12.774Z,2.73
2019-03-25T17:39:45.125Z,3.80
2019-03-25T17:41:17.461Z,4.67
2019-03-25T17:42:49.863Z,3.57
2019-03-25T17:44:22.203Z,2.87
2019-03-25T17:45:54.607Z,3.80
2019-03-25T17:47:26.999Z,5.47
2019-03-25T17:48:59.470Z,4.40
2019-03-25T17:50:33.250Z,3.70
2019-03-25T17:52:05.781Z,4.47
2019-03-25T17:53:38.250Z,4.07
2019-03-25T17:55:10.590Z,2.67
2019-03-25T17:56:42.919Z,4.33
2019-03-25T17:58:15.317Z,5.27
2019-03-25T17:59:47.803Z,2.70
2019-03-25T18:01:20.147Z,4.03
2019-03-25T18:02:52.543Z,2.80
2019-03-25T18:04:25.040Z,2.73
2019-03-25T18:05:57.752Z,3.27
2019-03-25T18:07:30.413Z,2.67
2019-03-25T18:09:02.892Z,3.67
2019-03-25T18:10:35.864Z,4.40
2019-03-25T18:12:08.561Z,3.07
2019-03-25T18:13:40.958Z,3.93
2019-03-25T18:15:13.291Z,4.23
2019-03-25T18:16:45.739Z,4.50
2019-03-25T18:18:18.130Z,4.17
2019-03-25T18:19:50.622Z,6.20
2019-03-25T18:21:23.019Z,3.37
2019-03-25T18:22:55.483Z,5.20
2019-03-25T18:24:27.877Z,4.37
2019-03-25T18:26:00.279Z,3.73
2019-03-25T18:27:32.770Z,3.23
2019-03-25T18:29:05.094Z,2.23
2019-03-25T18:30:37.555Z,2.77
2019-03-25T18:32:10.196Z,3.93
2019-03-25T18:33:42.663Z,3.27
2019-03-25T18:35:15.062Z,4.03
2019-03-25T18:36:47.520Z,3.17
2019-03-25T18:38:19.870Z,3.10
2019-03-25T18:39:52.274Z,2.33
2019-03-25T18:41:24.663Z,1.40
2019-03-25T18:42:57.018Z,2.13
2019-03-25T18:44:29.349Z,2.47
2019-03-25T18:46:01.743Z,1.70
2019-03-25T18:47:34.171Z,2.27
2019-03-25T18:49:06.634Z,2.60
2019-03-25T18:50:39.038Z,1.87
2019-03-25T18:52:11.467Z,2.43
2019-03-25T18:53:44.033Z,2.87
2019-03-25T18:55:16.430Z,3.40
2019-03-25T18:56:48.774Z,2.40
2019-03-25T18:58:21.396Z,2.30
2019-03-25T18:59:54.065Z,2.73
2019-03-25T19:01:29.658Z,3.80
2019-03-25T19:03:02.099Z,2.53
2019-03-25T19:04:34.548Z,2.70
2019-03-25T19:06:06.947Z,3.17
2019-03-25T19:07:39.380Z,2.57
2019-03-25T19:09:11.798Z,3.17
2019-03-25T19:10:44.273Z,2.43
2019-03-25T19:12:16.719Z,3.97
2019-03-25T19:13:49.213Z,3.53
2019-03-25T19:15:21.602Z,2.50
2019-03-25T19:16:54.023Z,2.13
2019-03-25T19:18:26.497Z,2.93
2019-03-25T19:19:58.848Z,6.20
2019-03-25T19:21:31.378Z,2.83
2019-03-25T19:23:03.858Z,3.77
2019-03-25T19:24:36.256Z,2.27
2019-03-25T19:26:08.736Z,3.00
2019-03-25T19:27:41.222Z,5.73
2019-03-25T19:29:13.647Z,1.90
2019-03-25T19:30:46.137Z,3.70
2019-03-25T19:32:18.510Z,3.53
2019-03-25T19:33:50.917Z,2.43
2019-03-25T19:35:23.444Z,2.50
2019-03-25T19:36:55.914Z,3.37
2019-03-25T19:38:28.367Z,3.40
2019-03-25T19:40:00.751Z,3.17
2019-03-25T19:41:33.206Z,4.17
2019-03-25T19:43:05.618Z,2.20
2019-03-25T19:44:38.400Z,3.20
2019-03-25T19:46:10.803Z,3.83
2019-03-25T19:47:43.454Z,2.23
2019-03-25T19:49:15.930Z,3.10
2019-03-25T19:50:48.344Z,2.50
2019-03-25T19:52:20.758Z,2.87
2019-03-25T19:53:53.200Z,3.20
2019-03-25T19:55:25.635Z,3.93
2019-03-25T19:56:58.072Z,5.63
2019-03-25T19:58:30.466Z,4.03
2019-03-25T20:00:02.955Z,6.00
2019-03-25T20:01:35.650Z,2.33
2019-03-25T20:03:08.146Z,2.23
2019-03-25T20:04:40.540Z,1.87
2019-03-25T20:06:12.936Z,2.40
2019-03-25T20:07:45.331Z,1.70
2019-03-25T20:09:17.867Z,2.47
2019-03-25T20:10:50.249Z,2.50
2019-03-25T20:12:22.684Z,1.57
2019-03-25T20:13:55.159Z,1.60
2019-03-25T20:15:27.576Z,2.23